sensor_id;sensor_type;location;lat;lon;timestamp;P1;durP1;ratioP1;P2;durP2;ratioP2
81135;SDS011;70622;50.886;3.890;2023-06-26T00:02:01;7.93;;;3.25;;
81135;SDS011;70622;50.886;3.890;2023-06-26T00:04:26;8.07;;;3.53;;
81135;SDS011;70622;50.886;3.890;2023-06-26T00:06:52;7.22;;;3.78;;
81135;SDS011;70622;50.886;3.890;2023-06-26T00:09:17;5.32;;;2.80;;
81135;SDS011;70622;50.886;3.890;2023-06-26T00:11:43;6.57;;;3.20;;
81135;SDS011;70622;50.886;3.890;2023-06-26T00:14:09;6.82;;;2.90;;
81135;SDS011;70622;50.886;3.890;2023-06-26T00:16:34;6.80;;;3.85;;
81135;SDS011;70622;50.886;3.890;2023-06-26T00:19:01;7.28;;;3.50;;
81135;SDS011;70622;50.886;3.890;2023-06-26T00:21:27;5.88;;;3.13;;
81135;SDS011;70622;50.886;3.890;2023-06-26T00:23:52;5.55;;;3.30;;
81135;SDS011;70622;50.886;3.890;2023-06-26T00:26:18;7.57;;;3.53;;
81135;SDS011;70622;50.886;3.890;2023-06-26T00:28:44;7.13;;;2.78;;
81135;SDS011;70622;50.886;3.890;2023-06-26T00:31:09;5.57;;;3.08;;
81135;SDS011;70622;50.886;3.890;2023-06-26T00:33:35;5.72;;;2.92;;
81135;SDS011;70622;50.886;3.890;2023-06-26T00:36:01;5.68;;;3.17;;
81135;SDS011;70622;50.886;3.890;2023-06-26T00:38:26;8.18;;;3.33;;
81135;SDS011;70622;50.886;3.890;2023-06-26T00:40:52;4.72;;;3.00;;
81135;SDS011;70622;50.886;3.890;2023-06-26T00:43:19;4.15;;;2.97;;
81135;SDS011;70622;50.886;3.890;2023-06-26T00:45:45;8.48;;;2.90;;
81135;SDS011;70622;50.886;3.890;2023-06-26T00:48:10;5.22;;;3.03;;
81135;SDS011;70622;50.886;3.890;2023-06-26T00:50:37;5.28;;;3.05;;
81135;SDS011;70622;50.886;3.890;2023-06-26T00:53:03;5.90;;;3.35;;
81135;SDS011;70622;50.886;3.890;2023-06-26T00:55:29;5.55;;;3.08;;
81135;SDS011;70622;50.886;3.890;2023-06-26T00:57:55;7.05;;;3.20;;
81135;SDS011;70622;50.886;3.890;2023-06-26T01:00:21;5.50;;;3.10;;
81135;SDS011;70622;50.886;3.890;2023-06-26T01:02:48;5.50;;;3.05;;
81135;SDS011;70622;50.886;3.890;2023-06-26T01:05:14;6.50;;;2.97;;
81135;SDS011;70622;50.886;3.890;2023-06-26T01:07:45;6.05;;;3.22;;
81135;SDS011;70622;50.886;3.890;2023-06-26T01:10:15;6.90;;;3.10;;
81135;SDS011;70622;50.886;3.890;2023-06-26T01:12:41;5.63;;;2.85;;
81135;SDS011;70622;50.886;3.890;2023-06-26T01:15:07;4.68;;;2.90;;
81135;SDS011;70622;50.886;3.890;2023-06-26T01:17:34;5.53;;;3.03;;
81135;SDS011;70622;50.886;3.890;2023-06-26T01:20:03;6.40;;;2.88;;
81135;SDS011;70622;50.886;3.890;2023-06-26T01:25:24;5.38;;;2.75;;
81135;SDS011;70622;50.886;3.890;2023-06-26T01:28:06;6.47;;;3.53;;
81135;SDS011;70622;50.886;3.890;2023-06-26T01:30:34;10.15;;;3.75;;
81135;SDS011;70622;50.886;3.890;2023-06-26T01:33:10;8.30;;;3.22;;
81135;SDS011;70622;50.886;3.890;2023-06-26T01:35:37;6.20;;;3.17;;
81135;SDS011;70622;50.886;3.890;2023-06-26T01:40:48;13.27;;;4.22;;
81135;SDS011;70622;50.886;3.890;2023-06-26T01:43:34;6.55;;;3.60;;
81135;SDS011;70622;50.886;3.890;2023-06-26T01:52:25;8.45;;;3.85;;
81135;SDS011;70622;50.886;3.890;2023-06-26T01:58:01;10.73;;;3.72;;
81135;SDS011;70622;50.886;3.890;2023-06-26T02:00:27;12.25;;;3.75;;
81135;SDS011;70622;50.886;3.890;2023-06-26T02:02:53;12.73;;;4.10;;
81135;SDS011;70622;50.886;3.890;2023-06-26T02:05:19;9.65;;;3.92;;
81135;SDS011;70622;50.886;3.890;2023-06-26T02:07:45;12.23;;;3.97;;
81135;SDS011;70622;50.886;3.890;2023-06-26T02:10:11;10.07;;;4.80;;
81135;SDS011;70622;50.886;3.890;2023-06-26T02:12:37;9.75;;;4.05;;
81135;SDS011;70622;50.886;3.890;2023-06-26T02:15:03;9.02;;;4.20;;
81135;SDS011;70622;50.886;3.890;2023-06-26T02:17:29;6.35;;;3.35;;
81135;SDS011;70622;50.886;3.890;2023-06-26T02:19:55;11.35;;;4.10;;
81135;SDS011;70622;50.886;3.890;2023-06-26T02:22:21;10.73;;;4.15;;
81135;SDS011;70622;50.886;3.890;2023-06-26T02:24:47;10.75;;;4.28;;
81135;SDS011;70622;50.886;3.890;2023-06-26T02:27:12;9.48;;;4.10;;
81135;SDS011;70622;50.886;3.890;2023-06-26T02:29:39;14.18;;;4.05;;
81135;SDS011;70622;50.886;3.890;2023-06-26T02:32:05;13.13;;;4.50;;
81135;SDS011;70622;50.886;3.890;2023-06-26T02:34:31;11.32;;;5.40;;
81135;SDS011;70622;50.886;3.890;2023-06-26T02:36:58;11.68;;;4.68;;
81135;SDS011;70622;50.886;3.890;2023-06-26T02:39:25;14.18;;;4.90;;
81135;SDS011;70622;50.886;3.890;2023-06-26T02:41:51;12.63;;;4.35;;
81135;SDS011;70622;50.886;3.890;2023-06-26T02:44:17;10.60;;;4.65;;
81135;SDS011;70622;50.886;3.890;2023-06-26T02:46:43;13.60;;;3.80;;
81135;SDS011;70622;50.886;3.890;2023-06-26T02:49:08;11.80;;;4.28;;
81135;SDS011;70622;50.886;3.890;2023-06-26T02:51:34;11.15;;;4.32;;
81135;SDS011;70622;50.886;3.890;2023-06-26T02:54:00;10.98;;;4.10;;
81135;SDS011;70622;50.886;3.890;2023-06-26T02:56:26;15.57;;;4.85;;
81135;SDS011;70622;50.886;3.890;2023-06-26T02:58:55;10.90;;;4.30;;
81135;SDS011;70622;50.886;3.890;2023-06-26T03:01:21;11.90;;;4.45;;
81135;SDS011;70622;50.886;3.890;2023-06-26T03:03:47;12.63;;;4.40;;
81135;SDS011;70622;50.886;3.890;2023-06-26T03:06:13;15.60;;;5.45;;
81135;SDS011;70622;50.886;3.890;2023-06-26T03:08:40;13.32;;;4.70;;
81135;SDS011;70622;50.886;3.890;2023-06-26T03:11:06;11.75;;;4.70;;
81135;SDS011;70622;50.886;3.890;2023-06-26T03:13:32;15.30;;;5.00;;
81135;SDS011;70622;50.886;3.890;2023-06-26T03:15:59;9.40;;;4.47;;
81135;SDS011;70622;50.886;3.890;2023-06-26T03:18:25;11.52;;;4.43;;
81135;SDS011;70622;50.886;3.890;2023-06-26T03:20:50;12.68;;;3.88;;
81135;SDS011;70622;50.886;3.890;2023-06-26T03:23:16;12.50;;;4.25;;
81135;SDS011;70622;50.886;3.890;2023-06-26T03:25:42;14.68;;;3.92;;
81135;SDS011;70622;50.886;3.890;2023-06-26T03:28:08;9.93;;;4.18;;
81135;SDS011;70622;50.886;3.890;2023-06-26T03:30:33;14.80;;;5.30;;
81135;SDS011;70622;50.886;3.890;2023-06-26T03:32:59;14.25;;;4.00;;
81135;SDS011;70622;50.886;3.890;2023-06-26T03:35:24;13.38;;;4.50;;
81135;SDS011;70622;50.886;3.890;2023-06-26T03:37:50;11.23;;;4.28;;
81135;SDS011;70622;50.886;3.890;2023-06-26T03:40:15;12.02;;;4.20;;
81135;SDS011;70622;50.886;3.890;2023-06-26T03:45:17;12.87;;;4.30;;
81135;SDS011;70622;50.886;3.890;2023-06-26T03:47:44;12.73;;;4.05;;
81135;SDS011;70622;50.886;3.890;2023-06-26T03:50:12;9.77;;;4.03;;
81135;SDS011;70622;50.886;3.890;2023-06-26T03:52:37;11.50;;;3.97;;
81135;SDS011;70622;50.886;3.890;2023-06-26T03:55:03;12.30;;;4.28;;
81135;SDS011;70622;50.886;3.890;2023-06-26T03:57:29;11.77;;;4.35;;
81135;SDS011;70622;50.886;3.890;2023-06-26T03:59:54;11.57;;;4.05;;
81135;SDS011;70622;50.886;3.890;2023-06-26T04:02:20;15.35;;;4.28;;
81135;SDS011;70622;50.886;3.890;2023-06-26T04:04:46;10.90;;;3.95;;
81135;SDS011;70622;50.886;3.890;2023-06-26T04:07:11;10.43;;;3.70;;
81135;SDS011;70622;50.886;3.890;2023-06-26T04:09:37;12.02;;;3.80;;
81135;SDS011;70622;50.886;3.890;2023-06-26T04:12:03;14.75;;;3.95;;
81135;SDS011;70622;50.886;3.890;2023-06-26T04:14:29;9.82;;;3.90;;
81135;SDS011;70622;50.886;3.890;2023-06-26T04:16:54;10.93;;;4.13;;
81135;SDS011;70622;50.886;3.890;2023-06-26T04:19:20;13.85;;;4.25;;
81135;SDS011;70622;50.886;3.890;2023-06-26T04:21:45;14.98;;;3.70;;
81135;SDS011;70622;50.886;3.890;2023-06-26T04:24:11;8.60;;;3.53;;
81135;SDS011;70622;50.886;3.890;2023-06-26T04:26:37;14.30;;;4.20;;
81135;SDS011;70622;50.886;3.890;2023-06-26T04:29:03;10.23;;;3.33;;
81135;SDS011;70622;50.886;3.890;2023-06-26T04:31:28;13.30;;;3.80;;
81135;SDS011;70622;50.886;3.890;2023-06-26T04:33:54;13.65;;;3.72;;
81135;SDS011;70622;50.886;3.890;2023-06-26T04:36:20;9.23;;;3.05;;
81135;SDS011;70622;50.886;3.890;2023-06-26T04:38:46;12.55;;;3.70;;
81135;SDS011;70622;50.886;3.890;2023-06-26T04:41:13;8.35;;;3.78;;
81135;SDS011;70622;50.886;3.890;2023-06-26T04:43:39;15.55;;;3.50;;
81135;SDS011;70622;50.886;3.890;2023-06-26T04:46:05;12.45;;;3.78;;
81135;SDS011;70622;50.886;3.890;2023-06-26T04:48:31;9.88;;;3.53;;
81135;SDS011;70622;50.886;3.890;2023-06-26T04:50:57;10.73;;;3.22;;
81135;SDS011;70622;50.886;3.890;2023-06-26T04:53:24;9.98;;;3.15;;
81135;SDS011;70622;50.886;3.890;2023-06-26T04:55:50;14.02;;;3.47;;
81135;SDS011;70622;50.886;3.890;2023-06-26T04:58:16;9.77;;;3.90;;
81135;SDS011;70622;50.886;3.890;2023-06-26T05:00:43;8.30;;;3.40;;
81135;SDS011;70622;50.886;3.890;2023-06-26T05:03:09;12.90;;;3.40;;
81135;SDS011;70622;50.886;3.890;2023-06-26T05:05:36;11.52;;;2.90;;
81135;SDS011;70622;50.886;3.890;2023-06-26T05:08:12;9.52;;;3.00;;
81135;SDS011;70622;50.886;3.890;2023-06-26T05:10:49;9.73;;;3.60;;
81135;SDS011;70622;50.886;3.890;2023-06-26T05:13:15;10.13;;;3.30;;
81135;SDS011;70622;50.886;3.890;2023-06-26T05:15:43;5.82;;;2.75;;
81135;SDS011;70622;50.886;3.890;2023-06-26T05:18:09;11.02;;;2.70;;
81135;SDS011;70622;50.886;3.890;2023-06-26T05:20:35;8.82;;;2.50;;
81135;SDS011;70622;50.886;3.890;2023-06-26T05:23:02;9.90;;;3.22;;
81135;SDS011;70622;50.886;3.890;2023-06-26T05:25:28;8.48;;;2.65;;
81135;SDS011;70622;50.886;3.890;2023-06-26T05:27:55;8.63;;;2.35;;
81135;SDS011;70622;50.886;3.890;2023-06-26T05:30:22;6.72;;;2.25;;
81135;SDS011;70622;50.886;3.890;2023-06-26T05:32:50;7.25;;;2.50;;
81135;SDS011;70622;50.886;3.890;2023-06-26T05:35:17;8.00;;;2.38;;
81135;SDS011;70622;50.886;3.890;2023-06-26T05:37:45;7.40;;;2.20;;
81135;SDS011;70622;50.886;3.890;2023-06-26T05:40:13;7.45;;;2.53;;
81135;SDS011;70622;50.886;3.890;2023-06-26T05:42:39;6.35;;;2.10;;
81135;SDS011;70622;50.886;3.890;2023-06-26T05:45:05;5.63;;;2.13;;
81135;SDS011;70622;50.886;3.890;2023-06-26T05:47:31;9.55;;;2.10;;
81135;SDS011;70622;50.886;3.890;2023-06-26T05:49:56;8.35;;;2.17;;
81135;SDS011;70622;50.886;3.890;2023-06-26T05:52:22;12.35;;;2.47;;
81135;SDS011;70622;50.886;3.890;2023-06-26T05:54:48;7.57;;;2.03;;
81135;SDS011;70622;50.886;3.890;2023-06-26T05:57:14;9.23;;;2.72;;
81135;SDS011;70622;50.886;3.890;2023-06-26T05:59:41;6.20;;;2.08;;
81135;SDS011;70622;50.886;3.890;2023-06-26T06:02:08;6.80;;;2.30;;
81135;SDS011;70622;50.886;3.890;2023-06-26T06:04:34;9.63;;;2.30;;
81135;SDS011;70622;50.886;3.890;2023-06-26T06:07:02;4.07;;;2.40;;
81135;SDS011;70622;50.886;3.890;2023-06-26T06:09:27;8.05;;;2.00;;
81135;SDS011;70622;50.886;3.890;2023-06-26T06:11:53;6.57;;;2.08;;
81135;SDS011;70622;50.886;3.890;2023-06-26T06:14:19;3.65;;;2.13;;
81135;SDS011;70622;50.886;3.890;2023-06-26T06:16:44;4.10;;;2.10;;
81135;SDS011;70622;50.886;3.890;2023-06-26T06:19:10;5.90;;;2.20;;
81135;SDS011;70622;50.886;3.890;2023-06-26T06:21:38;6.45;;;1.95;;
81135;SDS011;70622;50.886;3.890;2023-06-26T06:24:04;6.78;;;2.13;;
81135;SDS011;70622;50.886;3.890;2023-06-26T06:26:31;3.92;;;1.85;;
81135;SDS011;70622;50.886;3.890;2023-06-26T06:28:57;6.18;;;2.08;;
81135;SDS011;70622;50.886;3.890;2023-06-26T06:31:23;10.05;;;2.10;;
81135;SDS011;70622;50.886;3.890;2023-06-26T06:33:48;7.07;;;2.13;;
81135;SDS011;70622;50.886;3.890;2023-06-26T06:36:14;3.92;;;1.70;;
81135;SDS011;70622;50.886;3.890;2023-06-26T06:38:42;8.10;;;2.00;;
81135;SDS011;70622;50.886;3.890;2023-06-26T06:41:09;8.13;;;2.08;;
81135;SDS011;70622;50.886;3.890;2023-06-26T06:43:34;5.45;;;1.70;;
81135;SDS011;70622;50.886;3.890;2023-06-26T06:46:01;3.80;;;1.60;;
81135;SDS011;70622;50.886;3.890;2023-06-26T06:48:27;6.00;;;1.98;;
81135;SDS011;70622;50.886;3.890;2023-06-26T06:50:52;7.47;;;1.80;;
81135;SDS011;70622;50.886;3.890;2023-06-26T06:53:18;4.72;;;1.52;;
81135;SDS011;70622;50.886;3.890;2023-06-26T06:55:45;6.00;;;1.83;;
81135;SDS011;70622;50.886;3.890;2023-06-26T06:58:11;9.20;;;1.98;;
81135;SDS011;70622;50.886;3.890;2023-06-26T07:00:37;5.28;;;1.70;;
81135;SDS011;70622;50.886;3.890;2023-06-26T07:03:02;5.85;;;2.00;;
81135;SDS011;70622;50.886;3.890;2023-06-26T07:05:29;5.15;;;1.83;;
81135;SDS011;70622;50.886;3.890;2023-06-26T07:07:54;13.57;;;2.42;;
81135;SDS011;70622;50.886;3.890;2023-06-26T07:10:20;5.53;;;2.05;;
81135;SDS011;70622;50.886;3.890;2023-06-26T07:12:46;5.30;;;1.98;;
81135;SDS011;70622;50.886;3.890;2023-06-26T07:15:12;5.00;;;1.90;;
81135;SDS011;70622;50.886;3.890;2023-06-26T07:17:37;5.95;;;1.70;;
81135;SDS011;70622;50.886;3.890;2023-06-26T07:20:04;4.90;;;1.77;;
81135;SDS011;70622;50.886;3.890;2023-06-26T07:22:35;5.10;;;2.42;;
81135;SDS011;70622;50.886;3.890;2023-06-26T07:25:01;4.38;;;1.67;;
81135;SDS011;70622;50.886;3.890;2023-06-26T07:27:29;9.27;;;2.17;;
81135;SDS011;70622;50.886;3.890;2023-06-26T07:29:54;7.05;;;2.35;;
81135;SDS011;70622;50.886;3.890;2023-06-26T07:32:20;6.95;;;2.20;;
81135;SDS011;70622;50.886;3.890;2023-06-26T07:34:45;6.88;;;1.90;;
81135;SDS011;70622;50.886;3.890;2023-06-26T07:37:11;3.33;;;1.70;;
81135;SDS011;70622;50.886;3.890;2023-06-26T07:39:37;4.18;;;1.70;;
81135;SDS011;70622;50.886;3.890;2023-06-26T07:42:02;3.78;;;1.60;;
81135;SDS011;70622;50.886;3.890;2023-06-26T07:44:28;6.82;;;2.10;;
81135;SDS011;70622;50.886;3.890;2023-06-26T07:46:54;7.32;;;2.10;;
81135;SDS011;70622;50.886;3.890;2023-06-26T07:49:19;6.15;;;2.00;;
81135;SDS011;70622;50.886;3.890;2023-06-26T07:51:45;4.22;;;1.98;;
81135;SDS011;70622;50.886;3.890;2023-06-26T07:54:11;7.57;;;2.00;;
81135;SDS011;70622;50.886;3.890;2023-06-26T07:59:23;7.30;;;1.90;;
81135;SDS011;70622;50.886;3.890;2023-06-26T08:01:54;4.70;;;2.08;;
81135;SDS011;70622;50.886;3.890;2023-06-26T08:04:21;3.85;;;2.03;;
81135;SDS011;70622;50.886;3.890;2023-06-26T08:06:48;6.45;;;2.38;;
81135;SDS011;70622;50.886;3.890;2023-06-26T08:09:20;5.75;;;2.22;;
81135;SDS011;70622;50.886;3.890;2023-06-26T08:11:47;6.68;;;2.10;;
81135;SDS011;70622;50.886;3.890;2023-06-26T08:14:13;5.18;;;2.05;;
81135;SDS011;70622;50.886;3.890;2023-06-26T08:16:39;7.53;;;2.15;;
81135;SDS011;70622;50.886;3.890;2023-06-26T08:19:11;4.07;;;2.35;;
81135;SDS011;70622;50.886;3.890;2023-06-26T08:21:55;5.68;;;2.00;;
81135;SDS011;70622;50.886;3.890;2023-06-26T08:24:21;5.35;;;1.92;;
81135;SDS011;70622;50.886;3.890;2023-06-26T08:26:47;4.10;;;1.85;;
81135;SDS011;70622;50.886;3.890;2023-06-26T08:29:13;4.47;;;2.05;;
81135;SDS011;70622;50.886;3.890;2023-06-26T08:31:39;4.65;;;1.85;;
81135;SDS011;70622;50.886;3.890;2023-06-26T08:34:06;5.20;;;2.17;;
81135;SDS011;70622;50.886;3.890;2023-06-26T08:36:32;4.72;;;1.80;;
81135;SDS011;70622;50.886;3.890;2023-06-26T08:38:58;4.50;;;1.90;;
81135;SDS011;70622;50.886;3.890;2023-06-26T08:41:24;3.45;;;1.77;;
81135;SDS011;70622;50.886;3.890;2023-06-26T08:43:49;7.22;;;1.40;;
81135;SDS011;70622;50.886;3.890;2023-06-26T08:46:17;5.35;;;2.03;;
81135;SDS011;70622;50.886;3.890;2023-06-26T08:48:45;5.30;;;1.45;;
81135;SDS011;70622;50.886;3.890;2023-06-26T08:51:23;4.70;;;1.67;;
81135;SDS011;70622;50.886;3.890;2023-06-26T08:53:56;3.50;;;1.60;;
81135;SDS011;70622;50.886;3.890;2023-06-26T08:56:32;3.28;;;1.55;;
81135;SDS011;70622;50.886;3.890;2023-06-26T08:59:02;4.32;;;1.80;;
81135;SDS011;70622;50.886;3.890;2023-06-26T09:01:29;4.40;;;1.58;;
81135;SDS011;70622;50.886;3.890;2023-06-26T09:03:56;7.00;;;2.00;;
81135;SDS011;70622;50.886;3.890;2023-06-26T09:06:22;2.20;;;1.40;;
81135;SDS011;70622;50.886;3.890;2023-06-26T09:08:48;4.65;;;1.75;;
81135;SDS011;70622;50.886;3.890;2023-06-26T09:11:13;4.05;;;1.77;;
81135;SDS011;70622;50.886;3.890;2023-06-26T09:13:39;5.18;;;2.05;;
81135;SDS011;70622;50.886;3.890;2023-06-26T09:16:08;5.55;;;1.90;;
81135;SDS011;70622;50.886;3.890;2023-06-26T09:18:34;6.40;;;1.83;;
81135;SDS011;70622;50.886;3.890;2023-06-26T09:21:00;3.05;;;1.75;;
81135;SDS011;70622;50.886;3.890;2023-06-26T09:23:32;5.78;;;2.03;;
81135;SDS011;70622;50.886;3.890;2023-06-26T09:25:58;7.30;;;1.98;;
81135;SDS011;70622;50.886;3.890;2023-06-26T09:28:24;5.10;;;1.60;;
81135;SDS011;70622;50.886;3.890;2023-06-26T09:30:49;3.40;;;2.10;;
81135;SDS011;70622;50.886;3.890;2023-06-26T09:33:17;7.32;;;2.25;;
81135;SDS011;70622;50.886;3.890;2023-06-26T09:35:44;5.10;;;2.30;;
81135;SDS011;70622;50.886;3.890;2023-06-26T09:38:11;2.90;;;2.30;;
81135;SDS011;70622;50.886;3.890;2023-06-26T09:40:37;5.65;;;2.60;;
81135;SDS011;70622;50.886;3.890;2023-06-26T09:43:04;3.15;;;2.35;;
81135;SDS011;70622;50.886;3.890;2023-06-26T09:45:31;4.20;;;2.20;;
81135;SDS011;70622;50.886;3.890;2023-06-26T09:48:04;5.78;;;2.78;;
81135;SDS011;70622;50.886;3.890;2023-06-26T09:50:32;4.10;;;2.43;;
81135;SDS011;70622;50.886;3.890;2023-06-26T09:53:09;5.60;;;2.80;;
81135;SDS011;70622;50.886;3.890;2023-06-26T09:55:38;5.82;;;2.85;;
81135;SDS011;70622;50.886;3.890;2023-06-26T09:58:10;5.50;;;3.15;;
81135;SDS011;70622;50.886;3.890;2023-06-26T10:00:43;5.38;;;2.70;;
81135;SDS011;70622;50.886;3.890;2023-06-26T10:03:10;8.20;;;2.80;;
81135;SDS011;70622;50.886;3.890;2023-06-26T10:05:36;5.68;;;2.80;;
81135;SDS011;70622;50.886;3.890;2023-06-26T10:08:02;5.00;;;2.90;;
81135;SDS011;70622;50.886;3.890;2023-06-26T10:10:30;6.00;;;2.95;;
81135;SDS011;70622;50.886;3.890;2023-06-26T10:12:59;4.80;;;2.80;;
81135;SDS011;70622;50.886;3.890;2023-06-26T10:15:29;5.32;;;2.88;;
81135;SDS011;70622;50.886;3.890;2023-06-26T10:17:55;5.05;;;3.40;;
81135;SDS011;70622;50.886;3.890;2023-06-26T10:20:22;6.25;;;3.53;;
81135;SDS011;70622;50.886;3.890;2023-06-26T10:22:50;10.80;;;3.90;;
81135;SDS011;70622;50.886;3.890;2023-06-26T10:25:19;5.55;;;3.00;;
81135;SDS011;70622;50.886;3.890;2023-06-26T10:27:51;4.60;;;3.22;;
81135;SDS011;70622;50.886;3.890;2023-06-26T10:30:22;4.88;;;2.92;;
81135;SDS011;70622;50.886;3.890;2023-06-26T10:32:53;3.95;;;3.10;;
81135;SDS011;70622;50.886;3.890;2023-06-26T10:35:19;6.55;;;2.90;;
81135;SDS011;70622;50.886;3.890;2023-06-26T10:37:47;4.43;;;2.90;;
81135;SDS011;70622;50.886;3.890;2023-06-26T10:40:20;4.38;;;3.08;;
81135;SDS011;70622;50.886;3.890;2023-06-26T10:43:06;6.97;;;2.57;;
81135;SDS011;70622;50.886;3.890;2023-06-26T10:48:00;6.93;;;2.63;;
81135;SDS011;70622;50.886;3.890;2023-06-26T10:50:26;7.03;;;2.83;;
81135;SDS011;70622;50.886;3.890;2023-06-26T11:06:20;4.93;;;1.75;;
81135;SDS011;70622;50.886;3.890;2023-06-26T11:11:55;7.18;;;2.00;;
81135;SDS011;70622;50.886;3.890;2023-06-26T11:24:54;3.13;;;1.63;;
81135;SDS011;70622;50.886;3.890;2023-06-26T11:27:24;5.32;;;1.52;;
81135;SDS011;70622;50.886;3.890;2023-06-26T11:29:49;1.70;;;1.40;;
81135;SDS011;70622;50.886;3.890;2023-06-26T11:32:15;4.22;;;1.45;;
81135;SDS011;70622;50.886;3.890;2023-06-26T11:34:41;3.90;;;1.33;;
81135;SDS011;70622;50.886;3.890;2023-06-26T11:37:08;4.53;;;1.50;;
81135;SDS011;70622;50.886;3.890;2023-06-26T11:39:34;3.58;;;1.50;;
81135;SDS011;70622;50.886;3.890;2023-06-26T11:42:00;5.25;;;1.75;;
81135;SDS011;70622;50.886;3.890;2023-06-26T11:44:30;6.32;;;1.52;;
81135;SDS011;70622;50.886;3.890;2023-06-26T11:46:56;2.97;;;1.45;;
81135;SDS011;70622;50.886;3.890;2023-06-26T11:49:23;2.47;;;1.58;;
81135;SDS011;70622;50.886;3.890;2023-06-26T11:51:50;3.65;;;1.52;;
81135;SDS011;70622;50.886;3.890;2023-06-26T11:54:22;3.40;;;1.27;;
81135;SDS011;70622;50.886;3.890;2023-06-26T11:56:57;4.20;;;1.45;;
81135;SDS011;70622;50.886;3.890;2023-06-26T11:59:24;2.97;;;1.45;;
81135;SDS011;70622;50.886;3.890;2023-06-26T12:01:59;3.33;;;1.40;;
81135;SDS011;70622;50.886;3.890;2023-06-26T12:04:25;7.10;;;1.65;;
81135;SDS011;70622;50.886;3.890;2023-06-26T12:06:52;3.67;;;1.60;;
81135;SDS011;70622;50.886;3.890;2023-06-26T12:09:22;2.83;;;1.40;;
81135;SDS011;70622;50.886;3.890;2023-06-26T12:11:50;9.38;;;1.75;;
81135;SDS011;70622;50.886;3.890;2023-06-26T12:14:17;5.68;;;1.83;;
81135;SDS011;70622;50.886;3.890;2023-06-26T12:16:46;5.22;;;1.63;;
81135;SDS011;70622;50.886;3.890;2023-06-26T12:19:12;7.07;;;1.52;;
81135;SDS011;70622;50.886;3.890;2023-06-26T12:24:22;2.20;;;1.35;;
81135;SDS011;70622;50.886;3.890;2023-06-26T12:26:49;3.28;;;1.42;;
81135;SDS011;70622;50.886;3.890;2023-06-26T12:29:21;3.85;;;1.92;;
81135;SDS011;70622;50.886;3.890;2023-06-26T12:31:54;4.28;;;1.80;;
81135;SDS011;70622;50.886;3.890;2023-06-26T12:34:23;3.28;;;1.38;;
81135;SDS011;70622;50.886;3.890;2023-06-26T12:36:51;5.25;;;1.38;;
81135;SDS011;70622;50.886;3.890;2023-06-26T12:39:18;4.60;;;1.80;;
81135;SDS011;70622;50.886;3.890;2023-06-26T12:41:49;3.92;;;1.40;;
81135;SDS011;70622;50.886;3.890;2023-06-26T12:46:56;2.60;;;1.40;;
81135;SDS011;70622;50.886;3.890;2023-06-26T12:49:39;4.03;;;1.00;;
81135;SDS011;70622;50.886;3.890;2023-06-26T12:52:07;2.65;;;1.30;;
81135;SDS011;70622;50.886;3.890;2023-06-26T12:54:36;3.85;;;1.50;;
81135;SDS011;70622;50.886;3.890;2023-06-26T12:57:03;5.75;;;1.30;;
81135;SDS011;70622;50.886;3.890;2023-06-26T12:59:30;6.90;;;1.27;;
81135;SDS011;70622;50.886;3.890;2023-06-26T13:01:56;3.95;;;0.90;;
81135;SDS011;70622;50.886;3.890;2023-06-26T13:04:22;3.67;;;1.50;;
81135;SDS011;70622;50.886;3.890;2023-06-26T13:06:48;3.33;;;1.40;;
81135;SDS011;70622;50.886;3.890;2023-06-26T13:09:15;4.78;;;1.42;;
81135;SDS011;70622;50.886;3.890;2023-06-26T13:11:40;6.53;;;1.08;;
81135;SDS011;70622;50.886;3.890;2023-06-26T13:14:06;1.75;;;1.08;;
81135;SDS011;70622;50.886;3.890;2023-06-26T13:16:32;2.50;;;1.40;;
81135;SDS011;70622;50.886;3.890;2023-06-26T13:18:58;3.08;;;1.38;;
81135;SDS011;70622;50.886;3.890;2023-06-26T13:21:24;3.35;;;1.55;;
81135;SDS011;70622;50.886;3.890;2023-06-26T13:23:50;5.32;;;1.77;;
81135;SDS011;70622;50.886;3.890;2023-06-26T13:26:16;4.82;;;1.60;;
81135;SDS011;70622;50.886;3.890;2023-06-26T13:28:42;2.83;;;1.60;;
81135;SDS011;70622;50.886;3.890;2023-06-26T13:31:07;5.43;;;1.55;;
81135;SDS011;70622;50.886;3.890;2023-06-26T13:33:33;4.28;;;1.63;;
81135;SDS011;70622;50.886;3.890;2023-06-26T13:35:58;4.00;;;1.55;;
81135;SDS011;70622;50.886;3.890;2023-06-26T13:38:24;7.18;;;1.55;;
81135;SDS011;70622;50.886;3.890;2023-06-26T13:40:51;3.20;;;1.50;;
81135;SDS011;70622;50.886;3.890;2023-06-26T13:43:18;4.80;;;1.67;;
81135;SDS011;70622;50.886;3.890;2023-06-26T13:45:45;8.07;;;1.70;;
81135;SDS011;70622;50.886;3.890;2023-06-26T13:48:10;4.38;;;1.73;;
81135;SDS011;70622;50.886;3.890;2023-06-26T13:50:36;6.32;;;1.95;;
81135;SDS011;70622;50.886;3.890;2023-06-26T13:53:01;5.78;;;1.58;;
81135;SDS011;70622;50.886;3.890;2023-06-26T13:55:27;4.78;;;1.60;;
81135;SDS011;70622;50.886;3.890;2023-06-26T13:57:53;5.00;;;1.50;;
81135;SDS011;70622;50.886;3.890;2023-06-26T14:00:18;5.40;;;1.48;;
81135;SDS011;70622;50.886;3.890;2023-06-26T14:02:46;4.53;;;1.67;;
81135;SDS011;70622;50.886;3.890;2023-06-26T14:05:12;3.55;;;1.85;;
81135;SDS011;70622;50.886;3.890;2023-06-26T14:07:38;2.42;;;1.40;;
81135;SDS011;70622;50.886;3.890;2023-06-26T14:10:04;4.50;;;1.63;;
81135;SDS011;70622;50.886;3.890;2023-06-26T14:12:31;4.00;;;1.80;;
81135;SDS011;70622;50.886;3.890;2023-06-26T14:14:57;5.38;;;2.10;;
81135;SDS011;70622;50.886;3.890;2023-06-26T14:17:23;3.85;;;1.70;;
81135;SDS011;70622;50.886;3.890;2023-06-26T14:19:50;5.70;;;1.60;;
81135;SDS011;70622;50.886;3.890;2023-06-26T14:22:17;4.13;;;1.73;;
81135;SDS011;70622;50.886;3.890;2023-06-26T14:24:42;4.30;;;1.65;;
81135;SDS011;70622;50.886;3.890;2023-06-26T14:27:08;3.58;;;1.40;;
81135;SDS011;70622;50.886;3.890;2023-06-26T14:29:35;4.05;;;1.63;;
81135;SDS011;70622;50.886;3.890;2023-06-26T14:32:01;3.30;;;1.83;;
81135;SDS011;70622;50.886;3.890;2023-06-26T14:34:26;4.63;;;1.55;;
81135;SDS011;70622;50.886;3.890;2023-06-26T14:36:52;4.72;;;1.90;;
81135;SDS011;70622;50.886;3.890;2023-06-26T14:39:18;1.98;;;1.50;;
81135;SDS011;70622;50.886;3.890;2023-06-26T14:41:43;2.58;;;1.42;;
81135;SDS011;70622;50.886;3.890;2023-06-26T14:44:09;3.83;;;1.63;;
81135;SDS011;70622;50.886;3.890;2023-06-26T14:46:36;3.65;;;1.60;;
81135;SDS011;70622;50.886;3.890;2023-06-26T14:49:02;5.57;;;1.65;;
81135;SDS011;70622;50.886;3.890;2023-06-26T14:51:28;5.30;;;1.65;;
81135;SDS011;70622;50.886;3.890;2023-06-26T14:53:54;2.90;;;1.55;;
81135;SDS011;70622;50.886;3.890;2023-06-26T14:56:20;5.20;;;1.63;;
81135;SDS011;70622;50.886;3.890;2023-06-26T14:58:45;3.83;;;1.35;;
81135;SDS011;70622;50.886;3.890;2023-06-26T15:01:12;2.95;;;1.05;;
81135;SDS011;70622;50.886;3.890;2023-06-26T15:03:40;4.47;;;1.30;;
81135;SDS011;70622;50.886;3.890;2023-06-26T15:06:07;4.40;;;1.00;;
81135;SDS011;70622;50.886;3.890;2023-06-26T15:08:33;4.20;;;1.30;;
81135;SDS011;70622;50.886;3.890;2023-06-26T15:11:00;2.42;;;1.05;;
81135;SDS011;70622;50.886;3.890;2023-06-26T15:13:27;6.63;;;1.30;;
81135;SDS011;70622;50.886;3.890;2023-06-26T15:15:53;2.25;;;1.40;;
81135;SDS011;70622;50.886;3.890;2023-06-26T15:18:19;3.45;;;1.05;;
81135;SDS011;70622;50.886;3.890;2023-06-26T15:20:45;2.45;;;0.90;;
81135;SDS011;70622;50.886;3.890;2023-06-26T15:23:10;5.78;;;1.20;;
81135;SDS011;70622;50.886;3.890;2023-06-26T15:25:36;1.50;;;0.93;;
81135;SDS011;70622;50.886;3.890;2023-06-26T15:28:03;3.58;;;1.52;;
81135;SDS011;70622;50.886;3.890;2023-06-26T15:30:30;2.17;;;0.90;;
81135;SDS011;70622;50.886;3.890;2023-06-26T15:32:56;3.55;;;1.35;;
81135;SDS011;70622;50.886;3.890;2023-06-26T15:35:21;3.80;;;1.10;;
81135;SDS011;70622;50.886;3.890;2023-06-26T15:37:47;3.22;;;1.10;;
81135;SDS011;70622;50.886;3.890;2023-06-26T15:40:14;3.67;;;0.95;;